Time;durP1;ratioP1;P1;durP2;ratioP2;P2;SDS_P1;SDS_P2;PMS_P1;PMS_P2;Temp;Humidity;BMP_temperature;BMP_pressure;BME280_temperature;BME280_humidity;BME280_pressure;Samples;Min_cycle;Max_cycle;Signal;HPM_P1;HPM_P2
2021/09/13 00:00:20;;;;;;;7.63;2.67;;;15.40;99.90;;;;;;5115484;28;20044;-70
2021/09/13 00:02:46;;;;;;;7.90;2.73;;;15.50;99.90;;;;;;5116377;28;20040;-69
2021/09/13 00:05:11;;;;;;;5.70;2.47;;;15.50;99.90;;;;;;5115893;28;20051;-70
2021/09/13 00:07:37;;;;;;;5.93;3.20;;;15.60;99.90;;;;;;5114489;28;20047;-70
2021/09/13 00:10:04;;;;;;;6.97;2.73;;;15.50;99.90;;;;;;5116426;28;20043;-69
2021/09/13 00:12:30;;;;;;;6.43;2.57;;;15.60;99.90;;;;;;5116100;28;20079;-70
2021/09/13 00:14:55;;;;;;;4.70;2.73;;;15.60;99.90;;;;;;5115536;28;20143;-69
2021/09/13 00:17:21;;;;;;;7.93;2.63;;;15.60;99.90;;;;;;5114495;28;20040;-69
2021/09/13 00:19:47;;;;;;;5.47;3.10;;;15.60;99.90;;;;;;5115408;28;20047;-69
2021/09/13 00:22:12;;;;;;;5.03;2.20;;;15.60;99.90;;;;;;5113547;28;20051;-70
2021/09/13 00:24:38;;;;;;;3.97;2.50;;;15.60;99.90;;;;;;5116524;28;20040;-69
2021/09/13 00:27:04;;;;;;;6.80;2.83;;;15.60;99.90;;;;;;5116069;28;20100;-69
2021/09/13 00:29:29;;;;;;;6.07;2.80;;;15.60;99.90;;;;;;5115020;28;20039;-70
2021/09/13 00:31:55;;;;;;;4.33;2.27;;;15.60;99.90;;;;;;5115885;28;20108;-69
2021/09/13 00:34:20;;;;;;;7.00;2.40;;;15.70;99.90;;;;;;5115740;28;20061;-69
2021/09/13 00:36:46;;;;;;;5.80;2.73;;;15.60;99.90;;;;;;5113720;28;20123;-70
2021/09/13 00:39:11;;;;;;;6.60;2.93;;;15.70;99.90;;;;;;5114064;28;20051;-70
2021/09/13 00:41:37;;;;;;;5.33;2.60;;;15.70;99.90;;;;;;5115614;28;20479;-69
2021/09/13 00:44:03;;;;;;;4.87;2.63;;;15.70;99.90;;;;;;5113773;28;20066;-69
2021/09/13 00:46:28;;;;;;;5.90;3.00;;;15.60;99.90;;;;;;5115418;28;20043;-69
2021/09/13 00:48:54;;;;;;;5.87;3.13;;;15.60;99.90;;;;;;5115659;28;20126;-69
2021/09/13 00:51:19;;;;;;;8.30;3.10;;;15.60;99.90;;;;;;5112944;28;20044;-68
2021/09/13 00:53:45;;;;;;;9.50;3.30;;;15.60;99.90;;;;;;5113579;28;20051;-69
2021/09/13 00:56:11;;;;;;;9.60;3.93;;;15.60;99.90;;;;;;5115279;28;20436;-69
2021/09/13 00:58:37;;;;;;;10.20;3.57;;;15.60;99.90;;;;;;5113732;28;20434;-69
2021/09/13 01:01:04;;;;;;;9.83;3.43;;;15.60;99.90;;;;;;5115210;28;20202;-69
2021/09/13 01:03:30;;;;;;;7.87;3.20;;;15.60;99.90;;;;;;5114151;28;20048;-69
2021/09/13 01:05:56;;;;;;;8.77;3.40;;;15.60;99.90;;;;;;5114115;28;20159;-69
2021/09/13 01:08:21;;;;;;;13.43;3.67;;;15.60;99.90;;;;;;5114996;28;20508;-69
2021/09/13 01:10:48;;;;;;;11.30;3.87;;;15.60;99.90;;;;;;5113051;28;20071;-69
2021/09/13 01:13:14;;;;;;;10.93;4.50;;;15.60;99.90;;;;;;5114643;28;20055;-69
2021/09/13 01:15:41;;;;;;;15.87;4.80;;;15.50;99.90;;;;;;5115066;28;20047;-69
2021/09/13 01:18:07;;;;;;;13.27;4.23;;;15.50;99.90;;;;;;5112948;28;20055;-70
2021/09/13 01:20:34;;;;;;;14.87;5.23;;;15.50;99.90;;;;;;5113361;28;20055;-69
2021/09/13 01:23:06;;;;;;;13.93;5.43;;;15.50;99.90;;;;;;5115035;28;20123;-70
2021/09/13 01:25:32;;;;;;;13.97;5.30;;;15.50;99.90;;;;;;5114368;28;20407;-70
2021/09/13 01:27:58;;;;;;;12.10;5.57;;;15.50;99.90;;;;;;5113507;28;20502;-70
2021/09/13 01:30:24;;;;;;;11.27;5.43;;;15.40;99.90;;;;;;5113340;28;20048;-70
2021/09/13 01:32:49;;;;;;;11.97;5.47;;;15.40;99.90;;;;;;5112838;28;20116;-70
2021/09/13 01:35:15;;;;;;;8.70;4.77;;;15.40;99.90;;;;;;5113169;28;20051;-70
2021/09/13 01:37:40;;;;;;;12.17;4.80;;;15.30;99.90;;;;;;5113436;28;20043;-70
2021/09/13 01:40:07;;;;;;;8.27;4.83;;;15.30;99.90;;;;;;5113557;28;20050;-70
2021/09/13 01:42:32;;;;;;;10.47;4.07;;;15.30;99.90;;;;;;5113769;28;20051;-70
2021/09/13 01:44:58;;;;;;;12.47;4.73;;;15.30;99.90;;;;;;5115101;28;20153;-69
2021/09/13 01:47:24;;;;;;;12.07;4.73;;;15.30;99.90;;;;;;5112176;28;20127;-69
2021/09/13 01:49:49;;;;;;;9.47;5.17;;;15.30;99.90;;;;;;5113354;28;20499;-70
2021/09/13 01:52:15;;;;;;;11.07;4.60;;;15.30;99.90;;;;;;5112735;28;20476;-69
2021/09/13 01:54:40;;;;;;;10.70;4.70;;;15.30;99.90;;;;;;5113611;28;20099;-70
2021/09/13 01:57:06;;;;;;;9.57;4.77;;;15.30;99.90;;;;;;5114429;28;20070;-69
2021/09/13 01:59:31;;;;;;;9.23;4.43;;;15.30;99.90;;;;;;5113970;28;20071;-70
2021/09/13 02:01:57;;;;;;;11.63;4.87;;;15.40;99.90;;;;;;5113544;28;20078;-69
2021/09/13 02:04:23;;;;;;;11.23;4.27;;;15.40;99.90;;;;;;5112749;28;20046;-69
2021/09/13 02:06:48;;;;;;;9.47;4.13;;;15.30;99.90;;;;;;5113615;28;20043;-70
2021/09/13 02:09:15;;;;;;;10.97;4.83;;;15.40;99.90;;;;;;5113660;28;20039;-69
2021/09/13 02:11:41;;;;;;;8.53;4.20;;;15.40;99.90;;;;;;5113170;28;20421;-69
2021/09/13 02:14:07;;;;;;;11.87;4.77;;;15.30;99.90;;;;;;5111745;28;20054;-70
2021/09/13 02:16:32;;;;;;;11.37;4.70;;;15.40;99.90;;;;;;5113991;28;20079;-69
2021/09/13 02:18:58;;;;;;;7.33;4.93;;;15.40;99.90;;;;;;5112748;28;20902;-70
2021/09/13 02:21:23;;;;;;;9.70;4.90;;;15.40;99.90;;;;;;5111269;28;20079;-69
2021/09/13 02:23:49;;;;;;;11.43;4.60;;;15.40;99.90;;;;;;5113820;28;20047;-70
2021/09/13 02:26:14;;;;;;;10.00;4.03;;;15.40;99.90;;;;;;5113414;28;20101;-70
2021/09/13 02:28:40;;;;;;;11.43;4.67;;;15.40;99.90;;;;;;5112771;28;20042;-70
2021/09/13 02:31:06;;;;;;;8.63;3.83;;;15.30;99.90;;;;;;5113783;28;20039;-69
2021/09/13 02:33:31;;;;;;;7.67;3.87;;;15.30;99.90;;;;;;5112068;28;20039;-69
2021/09/13 02:35:57;;;;;;;11.17;4.17;;;15.30;99.90;;;;;;5111347;28;20071;-69
2021/09/13 02:38:23;;;;;;;12.23;3.73;;;15.30;99.90;;;;;;5113198;28;20035;-69
2021/09/13 02:40:48;;;;;;;13.70;4.90;;;15.30;99.90;;;;;;5113741;28;20048;-69
2021/09/13 02:43:14;;;;;;;11.70;4.20;;;15.30;99.90;;;;;;5112265;28;20044;-70
2021/09/13 02:45:39;;;;;;;10.33;3.43;;;15.30;99.90;;;;;;5113158;28;20512;-70
2021/09/13 02:48:05;;;;;;;10.77;4.37;;;15.30;99.90;;;;;;5113162;28;20040;-69
2021/09/13 02:50:31;;;;;;;10.67;4.37;;;15.30;99.90;;;;;;5111101;28;20043;-70
2021/09/13 02:52:58;;;;;;;11.73;4.37;;;15.20;99.90;;;;;;5112144;28;20094;-69
2021/09/13 02:55:24;;;;;;;9.03;4.60;;;15.20;99.90;;;;;;5111676;28;20051;-71
2021/09/13 02:57:50;;;;;;;9.87;3.43;;;15.20;99.90;;;;;;5111349;28;20503;-70
2021/09/13 03:00:16;;;;;;;10.60;3.70;;;15.20;99.90;;;;;;5112767;28;20131;-70
2021/09/13 03:02:43;;;;;;;12.93;3.80;;;15.20;99.90;;;;;;5112948;28;20039;-70
2021/09/13 03:05:10;;;;;;;11.70;3.90;;;15.20;99.90;;;;;;5110958;28;20035;-70
2021/09/13 03:07:35;;;;;;;11.57;3.80;;;15.20;99.90;;;;;;5112219;28;20105;-70
2021/09/13 03:10:01;;;;;;;12.47;3.80;;;15.20;99.90;;;;;;5112384;28;20035;-70
2021/09/13 03:12:29;;;;;;;14.80;4.20;;;15.20;99.90;;;;;;5111453;28;20047;-70
2021/09/13 03:14:54;;;;;;;10.70;3.43;;;15.20;99.90;;;;;;5111393;28;20511;-70
2021/09/13 03:17:20;;;;;;;11.90;3.53;;;15.20;99.90;;;;;;5110400;28;20055;-70
2021/09/13 03:19:45;;;;;;;10.93;3.33;;;15.20;99.90;;;;;;5112651;28;20428;-70
2021/09/13 03:22:11;;;;;;;8.27;3.23;;;15.20;99.90;;;;;;5112323;28;20063;-70
2021/09/13 03:24:36;;;;;;;11.17;3.37;;;15.30;99.90;;;;;;5112282;28;20044;-70
2021/09/13 03:27:03;;;;;;;15.20;3.97;;;15.30;99.90;;;;;;5112780;28;20043;-69
2021/09/13 03:29:28;;;;;;;11.83;4.47;;;15.30;99.90;;;;;;5111441;28;20062;-70
2021/09/13 03:31:54;;;;;;;9.90;3.37;;;15.30;99.90;;;;;;5111987;28;20039;-70
2021/09/13 03:34:19;;;;;;;10.90;3.57;;;15.30;99.90;;;;;;5111266;28;20058;-70
2021/09/13 03:36:45;;;;;;;10.93;3.90;;;15.30;99.90;;;;;;5112702;28;20044;-70
2021/09/13 03:39:10;;;;;;;12.87;3.80;;;15.30;99.90;;;;;;5111615;28;20484;-70
2021/09/13 03:41:36;;;;;;;14.10;4.10;;;15.30;99.90;;;;;;5112571;28;20050;-69
2021/09/13 03:44:02;;;;;;;15.20;4.00;;;15.30;99.90;;;;;;5112465;28;20040;-69
2021/09/13 03:46:28;;;;;;;10.33;3.73;;;15.30;99.90;;;;;;5111360;28;20452;-70
2021/09/13 03:48:53;;;;;;;8.97;3.03;;;15.30;99.90;;;;;;5111477;28;20042;-70
2021/09/13 03:51:19;;;;;;;14.57;3.73;;;15.30;99.90;;;;;;5112512;28;20487;-69
2021/09/13 03:53:44;;;;;;;10.33;3.30;;;15.30;99.90;;;;;;5111770;28;20449;-69
2021/09/13 03:56:10;;;;;;;11.97;3.33;;;15.30;99.90;;;;;;5112241;28;20047;-70
2021/09/13 03:58:35;;;;;;;15.07;4.13;;;15.30;99.90;;;;;;5112450;28;20047;-69
2021/09/13 04:01:01;;;;;;;13.60;3.73;;;15.20;99.90;;;;;;5111581;28;20402;-69
2021/09/13 04:03:36;;;;;;;12.07;3.83;;;15.20;99.90;;;;;;5111016;28;20044;-69
2021/09/13 04:06:01;;;;;;;8.83;3.00;;;15.20;99.90;;;;;;5112182;28;20399;-70
2021/09/13 04:11:17;;;;;;;11.33;4.10;;;15.20;99.90;;;;;;5112380;28;20400;-70
2021/09/13 04:13:42;;;;;;;11.23;3.77;;;15.20;99.90;;;;;;5111815;28;20055;-70
2021/09/13 04:16:08;;;;;;;15.70;3.70;;;15.20;99.90;;;;;;5110682;28;20044;-70
2021/09/13 04:18:33;;;;;;;7.83;3.93;;;15.20;99.90;;;;;;5111072;28;20055;-70
2021/09/13 04:20:59;;;;;;;10.50;4.17;;;15.10;99.90;;;;;;5111283;28;20056;-69
2021/09/13 04:23:24;;;;;;;10.30;3.67;;;15.10;99.90;;;;;;5111909;28;20131;-70
2021/09/13 04:25:50;;;;;;;10.37;3.53;;;15.10;99.90;;;;;;5112212;28;20079;-70
2021/09/13 04:28:15;;;;;;;12.10;4.33;;;15.10;99.90;;;;;;5111093;28;20098;-70
2021/09/13 04:30:41;;;;;;;12.20;3.70;;;15.20;99.90;;;;;;5114452;28;20048;-69
2021/09/13 04:33:06;;;;;;;12.43;3.80;;;15.10;99.90;;;;;;5114788;28;20088;-70
2021/09/13 04:35:32;;;;;;;10.07;3.53;;;15.10;99.90;;;;;;5113091;28;20032;-70
2021/09/13 04:37:58;;;;;;;11.60;3.93;;;15.10;99.90;;;;;;5114992;28;20139;-70
2021/09/13 04:40:23;;;;;;;11.27;3.57;;;15.00;99.90;;;;;;5114330;28;20071;-69
2021/09/13 04:42:49;;;;;;;12.77;4.50;;;15.00;99.90;;;;;;5112479;28;20126;-69
2021/09/13 04:45:14;;;;;;;9.60;3.63;;;15.00;99.90;;;;;;5114705;28;20089;-70
2021/09/13 04:47:40;;;;;;;11.83;4.17;;;15.00;99.90;;;;;;5114570;28;20039;-70
2021/09/13 04:50:06;;;;;;;13.33;4.10;;;15.00;99.90;;;;;;5139220;27;20127;-70
2021/09/13 04:52:32;;;;;;;10.30;4.07;;;14.90;99.90;;;;;;5114412;28;20067;-69
2021/09/13 04:54:57;;;;;;;14.33;4.07;;;14.90;99.90;;;;;;5114567;28;20087;-70
2021/09/13 04:57:23;;;;;;;11.10;4.13;;;14.90;99.90;;;;;;5110488;28;20035;-70
2021/09/13 04:59:48;;;;;;;14.20;4.07;;;14.90;99.90;;;;;;5114992;28;20114;-69
2021/09/13 05:02:14;;;;;;;12.20;4.17;;;14.90;99.90;;;;;;5113912;28;20475;-69
2021/09/13 05:04:39;;;;;;;12.13;3.80;;;14.90;99.90;;;;;;5112314;28;20411;-70
2021/09/13 05:07:05;;;;;;;13.63;4.13;;;14.80;99.90;;;;;;5113114;28;20468;-69
2021/09/13 05:09:30;;;;;;;13.13;4.07;;;14.80;99.90;;;;;;5113126;28;20503;-70
2021/09/13 05:11:56;;;;;;;10.33;4.00;;;14.80;99.90;;;;;;5113170;28;20046;-70
2021/09/13 05:14:21;;;;;;;8.03;3.60;;;14.70;99.90;;;;;;5138831;27;20046;-70
2021/09/13 05:16:47;;;;;;;10.90;4.03;;;14.70;99.90;;;;;;5113321;28;20047;-70
2021/09/13 05:19:13;;;;;;;15.13;4.23;;;14.70;99.90;;;;;;5113723;28;20031;-70
2021/09/13 05:21:40;;;;;;;11.37;4.40;;;14.60;99.90;;;;;;5113506;28;20043;-70
2021/09/13 05:24:06;;;;;;;9.20;3.60;;;14.60;99.90;;;;;;5113631;28;20050;-70
2021/09/13 05:26:32;;;;;;;9.33;3.90;;;14.60;99.90;;;;;;5113691;28;20438;-70
2021/09/13 05:28:58;;;;;;;12.13;4.63;;;14.60;99.90;;;;;;5114132;27;20495;-69
2021/09/13 05:31:24;;;;;;;13.83;4.30;;;14.60;99.90;;;;;;5112333;28;20043;-69
2021/09/13 05:33:49;;;;;;;13.03;4.10;;;14.60;99.90;;;;;;5113866;28;20484;-69
2021/09/13 05:36:15;;;;;;;14.63;5.53;;;14.50;99.90;;;;;;5113319;28;20044;-69
2021/09/13 05:38:40;;;;;;;11.67;4.47;;;14.50;99.90;;;;;;5112989;28;20048;-69
2021/09/13 05:41:06;;;;;;;9.80;4.33;;;14.50;99.90;;;;;;5113242;28;20078;-69
2021/09/13 05:43:32;;;;;;;12.57;4.37;;;14.50;99.90;;;;;;5113695;28;20386;-69
2021/09/13 05:45:57;;;;;;;13.17;5.10;;;14.50;99.90;;;;;;5111730;28;20064;-69
2021/09/13 05:48:24;;;;;;;11.53;4.53;;;14.50;99.90;;;;;;5113252;28;20039;-69
2021/09/13 05:50:50;;;;;;;12.87;4.50;;;14.50;99.90;;;;;;5113603;28;20044;-69
2021/09/13 05:53:16;;;;;;;7.70;3.80;;;14.50;99.90;;;;;;5110797;28;20055;-70
2021/09/13 05:55:43;;;;;;;10.93;4.00;;;14.60;99.90;;;;;;5112545;28;20047;-69
2021/09/13 05:58:10;;;;;;;11.87;3.90;;;14.50;99.90;;;;;;5112678;28;20054;-69
2021/09/13 06:00:36;;;;;;;12.20;3.93;;;14.50;99.90;;;;;;5112625;28;20040;-69
2021/09/13 06:03:03;;;;;;;12.30;4.20;;;14.60;99.90;;;;;;5113253;28;20383;-69
2021/09/13 06:05:29;;;;;;;14.80;3.93;;;14.60;99.90;;;;;;5112773;28;20051;-69
2021/09/13 06:07:54;;;;;;;10.13;4.47;;;14.60;99.90;;;;;;5108620;28;20403;-69
2021/09/13 06:10:20;;;;;;;12.27;4.13;;;14.60;99.90;;;;;;5111856;28;20047;-69
2021/09/13 06:12:46;;;;;;;11.70;4.10;;;14.60;99.90;;;;;;5112367;28;20496;-69
2021/09/13 06:15:11;;;;;;;9.90;4.10;;;14.60;99.90;;;;;;5112608;28;20366;-69
2021/09/13 06:17:37;;;;;;;9.30;3.67;;;14.60;99.90;;;;;;5111570;28;20047;-69
2021/09/13 06:20:04;;;;;;;13.17;4.17;;;14.60;99.90;;;;;;5111778;28;20078;-68
2021/09/13 06:22:30;;;;;;;10.30;4.40;;;14.70;99.90;;;;;;5110466;28;20054;-69
2021/09/13 06:24:56;;;;;;;11.60;3.97;;;14.70;99.90;;;;;;5111765;28;20035;-68
2021/09/13 06:27:22;;;;;;;11.73;4.40;;;14.70;99.90;;;;;;5111404;28;20042;-69
2021/09/13 06:29:47;;;;;;;8.87;3.87;;;14.70;99.90;;;;;;5112458;28;20055;-69
2021/09/13 06:32:13;;;;;;;9.40;3.53;;;14.80;99.90;;;;;;5111872;28;20345;-70
2021/09/13 06:34:38;;;;;;;12.50;4.03;;;14.80;99.90;;;;;;5111666;28;20061;-70
2021/09/13 06:37:04;;;;;;;7.40;3.53;;;14.90;99.90;;;;;;5112210;28;20047;-67
2021/09/13 06:39:30;;;;;;;10.70;3.47;;;14.90;99.90;;;;;;5111903;28;20050;-67
2021/09/13 06:41:55;;;;;;;9.57;3.67;;;14.90;99.90;;;;;;5109789;28;20047;-68
2021/09/13 06:44:23;;;;;;;10.70;3.57;;;15.00;99.90;;;;;;5111762;28;20392;-69
2021/09/13 06:47:07;;;;;;;10.60;4.03;;;15.10;99.90;;;;;;5111777;28;20055;-69
2021/09/13 06:49:34;;;;;;;12.83;3.90;;;15.10;99.90;;;;;;5111395;28;20074;-68
2021/09/13 06:52:00;;;;;;;11.03;3.50;;;15.20;99.90;;;;;;5109947;28;20039;-68
2021/09/13 06:54:28;;;;;;;10.10;3.50;;;15.30;99.90;;;;;;5111948;28;20040;-68
2021/09/13 06:56:56;;;;;;;9.27;3.63;;;15.30;99.90;;;;;;5110449;28;20130;-68
2021/09/13 06:59:22;;;;;;;10.50;3.97;;;15.30;99.90;;;;;;5112006;28;20510;-69
2021/09/13 07:01:48;;;;;;;8.67;3.30;;;15.40;99.90;;;;;;5111150;28;20036;-68
2021/09/13 07:04:13;;;;;;;10.53;3.60;;;15.50;99.90;;;;;;5111352;28;20098;-69
2021/09/13 07:06:39;;;;;;;7.93;3.60;;;15.50;99.90;;;;;;5112455;28;20042;-69
2021/09/13 07:09:05;;;;;;;12.47;3.57;;;15.50;99.90;;;;;;5111858;28;20051;-69
2021/09/13 07:11:30;;;;;;;9.70;4.43;;;15.60;99.90;;;;;;5112602;28;20153;-69
2021/09/13 07:13:56;;;;;;;9.50;3.60;;;15.60;99.90;;;;;;5112720;28;20091;-68
2021/09/13 07:16:22;;;;;;;8.17;3.07;;;15.60;99.90;;;;;;5111496;28;20058;-68
2021/09/13 07:18:48;;;;;;;9.83;3.20;;;15.70;99.90;;;;;;5112273;28;20043;-68
2021/09/13 07:21:14;;;;;;;9.80;3.17;;;15.70;99.80;;;;;;5112290;28;20058;-69
2021/09/13 07:23:40;;;;;;;14.57;3.50;;;15.80;99.70;;;;;;5112118;28;20071;-68
2021/09/13 07:26:06;;;;;;;8.97;3.03;;;15.90;99.60;;;;;;5111001;28;20105;-68
2021/09/13 07:28:32;;;;;;;6.53;3.00;;;15.90;99.50;;;;;;5112589;28;20419;-69
2021/09/13 07:30:58;;;;;;;11.00;3.30;;;15.90;99.40;;;;;;5112369;28;20040;-70
2021/09/13 07:33:23;;;;;;;7.47;2.97;;;16.00;99.30;;;;;;5110895;28;20372;-69
2021/09/13 07:35:49;;;;;;;6.87;2.77;;;16.10;99.30;;;;;;5111416;28;20042;-69
2021/09/13 07:38:14;;;;;;;6.50;2.93;;;16.10;99.20;;;;;;5144449;27;20047;-69
2021/09/13 07:40:42;;;;;;;7.67;2.60;;;16.20;99.10;;;;;;5111063;28;20058;-69
2021/09/13 07:43:08;;;;;;;6.10;2.53;;;16.30;99.00;;;;;;5111132;28;20048;-70
2021/09/13 07:45:35;;;;;;;6.33;2.07;;;16.40;98.60;;;;;;5109741;28;20048;-70
2021/09/13 07:48:00;;;;;;;7.33;2.20;;;16.40;98.20;;;;;;5109681;28;20131;-69
2021/09/13 07:50:26;;;;;;;9.50;2.10;;;16.50;98.00;;;;;;5109869;28;20186;-71
2021/09/13 07:52:51;;;;;;;5.83;2.23;;;16.50;97.80;;;;;;5110928;28;20051;-71
2021/09/13 07:55:17;;;;;;;8.73;2.23;;;16.60;97.70;;;;;;5110979;28;20072;-71
2021/09/13 07:57:43;;;;;;;8.23;1.90;;;16.60;97.40;;;;;;5111831;28;20078;-71
2021/09/13 08:00:10;;;;;;;9.73;1.80;;;16.70;97.20;;;;;;5110800;28;20185;-71
2021/09/13 08:02:36;;;;;;;5.17;1.30;;;16.70;97.10;;;;;;5112906;28;20485;-70
2021/09/13 08:05:02;;;;;;;7.50;1.40;;;16.80;96.50;;;;;;5116414;28;20074;-72
2021/09/13 08:07:27;;;;;;;12.33;1.40;;;16.80;96.00;;;;;;5113652;28;20039;-72
2021/09/13 08:09:53;;;;;;;11.93;1.43;;;16.90;96.00;;;;;;5116336;28;20126;-71
2021/09/13 08:12:19;;;;;;;8.37;1.80;;;16.90;95.90;;;;;;5114602;28;20368;-71
2021/09/13 08:14:44;;;;;;;7.57;2.33;;;17.00;95.50;;;;;;5114756;28;20050;-71
2021/09/13 08:17:10;;;;;;;7.50;1.67;;;17.00;95.10;;;;;;5114385;28;20589;-71
2021/09/13 08:19:40;;;;;;;6.37;1.77;;;17.00;95.10;;;;;;5115276;28;20047;-71
2021/09/13 08:22:07;;;;;;;8.07;1.60;;;17.10;94.80;;;;;;5115573;28;20051;-71
2021/09/13 08:24:33;;;;;;;4.70;1.57;;;17.00;94.70;;;;;;5115761;28;20044;-71
2021/09/13 08:26:59;;;;;;;16.53;2.87;;;17.10;94.50;;;;;;5115219;28;20049;-71
2021/09/13 08:29:24;;;;;;;8.07;2.03;;;17.10;94.20;;;;;;5115283;28;20053;-71
2021/09/13 08:31:51;;;;;;;6.87;2.07;;;17.10;93.90;;;;;;5115620;28;20046;-71
2021/09/13 08:34:17;;;;;;;6.03;2.07;;;17.00;93.90;;;;;;5113249;28;20096;-71
2021/09/13 08:36:44;;;;;;;8.90;2.40;;;17.10;94.10;;;;;;5115884;28;20043;-70
2021/09/13 08:39:10;;;;;;;11.27;2.07;;;17.10;94.00;;;;;;5115537;28;20032;-71
2021/09/13 08:41:35;;;;;;;8.77;2.07;;;17.10;94.00;;;;;;5114828;28;20043;-71
2021/09/13 08:44:02;;;;;;;7.07;1.60;;;17.10;93.60;;;;;;5115284;28;20400;-71
2021/09/13 08:47:05;;;;;;;5.87;1.80;;;17.10;93.40;;;;;;5115068;28;20501;-71
2021/09/13 08:49:35;;;;;;;5.80;1.93;;;17.10;93.50;;;;;;5111244;28;20055;-71
2021/09/13 08:52:05;;;;;;;6.40;2.00;;;17.10;93.50;;;;;;5115542;28;20043;-71
2021/09/13 08:54:34;;;;;;;10.83;1.73;;;17.10;93.60;;;;;;5113787;28;20043;-71
2021/09/13 08:57:06;;;;;;;8.23;2.30;;;17.10;93.70;;;;;;5113901;28;20537;-71
2021/09/13 08:59:34;;;;;;;6.87;1.57;;;17.10;93.60;;;;;;5114994;28;20047;-71
2021/09/13 09:02:00;;;;;;;5.10;2.17;;;17.10;93.30;;;;;;5112792;28;20060;-71
2021/09/13 09:04:28;;;;;;;7.87;1.70;;;17.10;93.00;;;;;;5114178;28;20137;-71
2021/09/13 09:06:53;;;;;;;7.07;1.70;;;17.20;93.10;;;;;;5113411;28;20049;-71
2021/09/13 09:09:22;;;;;;;5.87;1.67;;;17.20;93.00;;;;;;5112608;28;20344;-71
2021/09/13 09:12:01;;;;;;;9.00;1.70;;;17.30;92.90;;;;;;5113429;28;20031;-71
2021/09/13 09:14:33;;;;;;;6.70;2.07;;;17.30;92.50;;;;;;5112056;28;20133;-71
2021/09/13 09:17:10;;;;;;;5.43;1.47;;;17.30;92.70;;;;;;5113990;28;20081;-71
2021/09/13 09:19:37;;;;;;;4.83;1.50;;;17.30;92.40;;;;;;5113842;28;20476;-72
2021/09/13 09:22:20;;;;;;;8.57;1.73;;;17.30;92.30;;;;;;5113234;28;20522;-71
2021/09/13 09:24:48;;;;;;;5.77;1.50;;;17.30;91.80;;;;;;5114205;28;20047;-71
2021/09/13 09:27:14;;;;;;;5.77;1.70;;;17.20;92.10;;;;;;5114266;28;20054;-71
2021/09/13 09:29:39;;;;;;;4.10;1.57;;;17.20;92.30;;;;;;5114252;28;20043;-71
2021/09/13 09:32:05;;;;;;;5.13;1.80;;;17.20;92.30;;;;;;5114123;28;20059;-72
2021/09/13 09:34:36;;;;;;;6.53;2.23;;;17.20;92.40;;;;;;5113194;28;20043;-71
2021/09/13 09:37:04;;;;;;;6.80;1.97;;;17.20;92.40;;;;;;5113976;28;20035;-71
2021/09/13 09:39:29;;;;;;;7.17;1.53;;;17.20;92.40;;;;;;5114135;28;20531;-71
2021/09/13 09:41:56;;;;;;;6.40;2.03;;;17.20;92.20;;;;;;5112982;28;20047;-71
2021/09/13 09:44:23;;;;;;;3.93;1.40;;;17.20;92.10;;;;;;5112096;28;20043;-72
2021/09/13 09:46:51;;;;;;;5.33;1.57;;;17.20;92.10;;;;;;5114011;28;20059;-70
2021/09/13 09:49:22;;;;;;;5.10;1.10;;;17.20;92.10;;;;;;5112584;28;20126;-70
2021/09/13 09:51:55;;;;;;;5.65;1.25;;;17.20;91.40;;;;;;5112452;28;20058;-70
2021/09/13 09:54:26;;;;;;;7.67;1.50;;;17.20;91.40;;;;;;5113498;28;20071;-69
2021/09/13 09:57:02;;;;;;;7.63;1.90;;;17.20;91.40;;;;;;5114250;28;20142;-70
2021/09/13 09:59:35;;;;;;;4.60;1.23;;;17.20;91.20;;;;;;5111856;28;20381;-70
2021/09/13 10:02:12;;;;;;;8.37;1.57;;;17.20;91.20;;;;;;5112712;28;20051;-70
2021/09/13 10:04:37;;;;;;;6.97;1.27;;;17.20;90.50;;;;;;5114113;28;20247;-70
2021/09/13 10:07:03;;;;;;;6.00;1.60;;;17.20;90.90;;;;;;5111868;28;20067;-71
2021/09/13 10:09:30;;;;;;;5.30;1.10;;;17.10;91.00;;;;;;5113298;28;20047;-70
2021/09/13 10:11:59;;;;;;;2.13;1.00;;;17.00;90.70;;;;;;5111786;28;20039;-70
2021/09/13 10:14:27;;;;;;;4.80;1.27;;;17.00;91.00;;;;;;5112187;28;20137;-70
2021/09/13 10:16:53;;;;;;;5.03;1.03;;;17.00;91.20;;;;;;5112313;28;20068;-70
2021/09/13 10:19:21;;;;;;;4.40;1.20;;;17.10;91.40;;;;;;5112590;28;20043;-70
2021/09/13 10:21:48;;;;;;;6.13;1.40;;;17.20;91.30;;;;;;5113402;28;20051;-70
2021/09/13 10:24:19;;;;;;;5.13;1.40;;;17.30;91.10;;;;;;5113048;28;20043;-70
2021/09/13 10:26:47;;;;;;;;;;;17.40;90.70;;;;;;5111303;28;20091;-70
2021/09/13 10:29:14;;;;;;;2.97;1.20;;;17.40;90.70;;;;;;5113518;28;20015;-70
2021/09/13 10:31:43;;;;;;;5.93;1.30;;;17.50;91.00;;;;;;5112725;28;20079;-70
2021/09/13 10:34:25;;;;;;;3.03;1.20;;;17.60;90.40;;;;;;5111176;28;20511;-70
2021/09/13 10:37:18;;;;;;;4.07;1.00;;;17.70;90.10;;;;;;5113339;28;20058;-69
2021/09/13 10:39:59;;;;;;;3.17;0.60;;;17.80;87.00;;;;;;5113334;28;20044;-69
2021/09/13 10:42:41;;;;;;;1.10;0.80;;;17.90;86.20;;;;;;5112403;28;20097;-70
2021/09/13 10:45:29;;;;;;;3.50;0.90;;;17.90;85.40;;;;;;5113008;28;20051;-70
2021/09/13 10:47:58;;;;;;;6.47;1.20;;;18.00;85.80;;;;;;5112834;28;20040;-70
2021/09/13 10:50:35;;;;;;;4.07;1.30;;;18.00;85.90;;;;;;5111541;28;20047;-70
2021/09/13 10:53:18;;;;;;;5.63;0.90;;;18.00;85.60;;;;;;5112728;28;20050;-76
2021/09/13 10:55:55;;;;;;;4.83;1.20;;;18.10;84.90;;;;;;5107820;28;20083;-74
2021/09/13 10:58:30;;;;;;;3.87;0.90;;;18.20;82.80;;;;;;5108449;28;20515;-72
2021/09/13 11:00:57;;;;;;;2.20;0.70;;;18.20;81.80;;;;;;5108369;28;20055;-73
2021/09/13 11:03:23;;;;;;;3.73;1.07;;;18.20;81.60;;;;;;5108968;28;20074;-71
2021/09/13 11:06:02;;;;;;;3.27;0.97;;;18.30;81.60;;;;;;5108587;28;20148;-74
2021/09/13 11:08:28;;;;;;;3.57;0.90;;;18.20;81.50;;;;;;5108038;28;20044;-72
2021/09/13 11:10:53;;;;;;;3.23;0.70;;;18.20;80.80;;;;;;5107753;28;20045;-71
2021/09/13 11:13:19;;;;;;;2.73;0.90;;;18.20;81.30;;;;;;5108260;28;20132;-72
2021/09/13 11:15:49;;;;;;;4.40;1.23;;;18.30;82.60;;;;;;5108045;28;20043;-71
2021/09/13 11:18:41;;;;;;;2.70;0.87;;;18.40;82.60;;;;;;5108749;28;20070;-73
2021/09/13 11:21:19;;;;;;;6.10;1.30;;;18.40;81.70;;;;;;5108520;28;20056;-72
2021/09/13 11:23:59;;;;;;;1.77;0.83;;;18.40;81.70;;;;;;5108947;28;20086;-74
2021/09/13 11:26:34;;;;;;;2.37;1.00;;;18.40;81.60;;;;;;5109039;28;20437;-71
2021/09/13 11:29:00;;;;;;;5.70;0.97;;;18.40;81.80;;;;;;5108358;28;20040;-71
2021/09/13 11:31:52;;;;;;;3.67;0.90;;;18.40;81.50;;;;;;5107799;28;20568;-71
2021/09/13 11:34:20;;;;;;;4.75;1.00;;;18.40;81.30;;;;;;5107663;28;20043;-73
2021/09/13 11:37:09;;;;;;;3.50;1.50;;;18.40;82.30;;;;;;5109485;28;20043;-72
2021/09/13 11:39:45;;;;;;;5.13;1.00;;;18.50;81.60;;;;;;5094201;28;20075;-73
2021/09/13 11:42:24;;;;;;;2.63;0.80;;;18.60;81.10;;;;;;5112297;28;20457;-73
2021/09/13 11:44:52;;;;;;;6.13;1.20;;;18.70;82.10;;;;;;5114519;28;20089;-74
2021/09/13 11:47:20;;;;;;;3.80;1.03;;;18.90;81.70;;;;;;5114334;28;20143;-73
2021/09/13 11:49:48;;;;;;;2.60;0.80;;;19.10;80.60;;;;;;5115873;28;20075;-73
2021/09/13 11:52:16;;;;;;;3.53;0.80;;;19.20;80.20;;;;;;5114889;28;20047;-72
2021/09/13 11:54:56;;;;;;;4.17;1.13;;;19.30;80.00;;;;;;5116354;28;20072;-73
2021/09/13 11:57:26;;;;;;;3.33;1.20;;;19.40;78.70;;;;;;5111409;28;20048;-73
2021/09/13 11:59:57;;;;;;;2.37;0.77;;;19.30;78.60;;;;;;5111742;28;20180;-71
2021/09/13 12:02:23;;;;;;;2.13;0.98;;;19.20;78.30;;;;;;5109870;28;20094;-72
2021/09/13 12:04:50;;;;;;;3.00;0.77;;;19.00;78.80;;;;;;5110929;28;20051;-71
2021/09/13 12:07:16;;;;;;;2.83;0.80;;;19.00;79.10;;;;;;5110663;28;20052;-74
2021/09/13 12:09:45;;;;;;;2.93;0.97;;;18.90;78.50;;;;;;5110879;28;20130;-69
2021/09/13 12:12:16;;;;;;;2.63;0.97;;;18.80;78.00;;;;;;5111387;28;20126;-74
2021/09/13 12:14:43;;;;;;;2.53;0.80;;;18.80;77.90;;;;;;5112245;28;20039;-69
2021/09/13 12:17:10;;;;;;;2.13;0.80;;;18.80;78.10;;;;;;5112219;28;20587;-69
2021/09/13 12:19:46;;;;;;;3.70;0.77;;;18.90;77.70;;;;;;5104624;28;20044;-69
2021/09/13 12:22:13;;;;;;;3.97;0.80;;;18.90;77.80;;;;;;5111813;28;20146;-73
2021/09/13 12:24:42;;;;;;;3.53;0.87;;;18.90;77.20;;;;;;5110658;28;20048;-72
2021/09/13 12:27:16;;;;;;;2.90;0.50;;;18.90;76.60;;;;;;5111005;28;20488;-71
2021/09/13 12:29:58;;;;;;;2.70;0.70;;;18.90;75.80;;;;;;5110679;28;20035;-68
2021/09/13 12:32:27;;;;;;;3.63;0.80;;;18.90;75.70;;;;;;5112176;28;20093;-68
2021/09/13 12:34:55;;;;;;;4.83;0.70;;;18.90;76.30;;;;;;5109138;28;20055;-70
2021/09/13 12:37:29;;;;;;;2.17;0.53;;;18.90;76.50;;;;;;5110223;28;20044;-69
2021/09/13 12:40:06;;;;;;;2.93;0.70;;;18.90;76.90;;;;;;5110252;28;20109;-69
2021/09/13 12:42:32;;;;;;;3.80;0.87;;;19.00;76.30;;;;;;5110921;28;20051;-69
2021/09/13 12:45:02;;;;;;;3.47;0.70;;;19.00;77.40;;;;;;5110072;28;20040;-71
2021/09/13 12:47:28;;;;;;;2.85;0.90;;;19.00;78.00;;;;;;5109960;28;20043;-73